Terminal Aerodrome Forecast
Issued by NWS

Home | Current Version | Previous Version | Text Only | Print | Product List | Glossary Off
Versions: 1 2 3 4 5 6 7 8 9 10 11 12 13 14 15 16 17 18 19 20 21 22 23 24 25 26 27 28 29 30 31

000
FTUS43 KABR 291700
TAFPIR
TAF
KPIR 291737Z 2918/3018 32015G21KT P6SM FEW020
     FM291900 33016G23KT P6SM VCSH BKN050
     FM292200 34014G20KT P6SM SCT060
     FM300000 03007KT P6SM SKC
     FM300800 07006KT 2SM BR SKC
     FM301500 13009KT P6SM SCT050=

USA.gov is the U.S. government's official web portal to all federal, state and local government web resources and services.